createdAt,value
2022-08-08T00:01:06.483Z,24.47
2022-08-08T00:03:54.723Z,24.45
2022-08-08T00:06:42.670Z,24.46
2022-08-08T00:09:18.181Z,24.47
2022-08-08T00:12:09.613Z,24.47
2022-08-08T00:14:47.954Z,24.45
2022-08-08T00:17:58.626Z,24.42
2022-08-08T00:20:33.225Z,24.42
2022-08-08T00:23:08.006Z,24.42
2022-08-08T00:25:46.390Z,24.39
2022-08-08T00:28:35.769Z,24.35
2022-08-08T00:32:16.321Z,24.31
2022-08-08T00:34:46.002Z,24.29
2022-08-08T00:37:48.248Z,24.24
2022-08-08T00:41:06.709Z,24.18
2022-08-08T00:43:40.278Z,24.21
2022-08-08T00:46:26.914Z,24.19
2022-08-08T00:49:22.447Z,24.15
2022-08-08T00:52:08.923Z,24.17
2022-08-08T00:55:05.998Z,24.17
2022-08-08T00:57:57.037Z,24.07
2022-08-08T01:00:28.182Z,23.96
2022-08-08T01:04:00.015Z,23.88
2022-08-08T01:06:18.182Z,23.79
2022-08-08T01:09:35.033Z,23.81
2022-08-08T01:11:54.104Z,23.94
2022-08-08T01:14:54.219Z,23.93
2022-08-08T01:17:17.881Z,23.88
2022-08-08T01:20:02.117Z,23.82
2022-08-08T01:22:40.207Z,23.77
2022-08-08T01:25:14.415Z,23.71
2022-08-08T01:28:02.809Z,23.70
2022-08-08T01:30:31.214Z,23.70
2022-08-08T01:33:24.068Z,23.65
2022-08-08T01:36:13.501Z,23.63
2022-08-08T01:39:00.828Z,23.63
2022-08-08T01:41:34.398Z,23.58
2022-08-08T01:44:20.411Z,23.57
2022-08-08T01:46:56.514Z,23.52
2022-08-08T01:49:46.174Z,23.50
2022-08-08T01:52:59.135Z,23.49
2022-08-08T01:56:25.993Z,23.52
2022-08-08T01:58:38.701Z,23.53
2022-08-08T02:02:00.307Z,23.54
2022-08-08T02:04:28.546Z,23.52
2022-08-08T02:06:56.691Z,23.61
2022-08-08T02:10:01.757Z,23.69
2022-08-08T02:12:40.732Z,23.73
2022-08-08T02:15:12.510Z,23.71
2022-08-08T02:17:58.295Z,23.75
2022-08-08T02:21:00.786Z,23.78
2022-08-08T02:23:31.875Z,23.72
2022-08-08T02:26:21.874Z,23.70
2022-08-08T02:28:58.539Z,23.79
2022-08-08T02:32:00.998Z,23.83
2022-08-08T02:34:33.303Z,23.81
2022-08-08T02:37:09.988Z,23.74
2022-08-08T02:40:18.714Z,23.69
2022-08-08T02:44:38.767Z,23.66
2022-08-08T02:46:13.480Z,23.69
2022-08-08T02:48:56.254Z,23.68
2022-08-08T02:51:55.064Z,23.66
2022-08-08T02:54:38.797Z,23.62
2022-08-08T02:57:12.361Z,23.65
2022-08-08T02:59:57.580Z,23.62
2022-08-08T03:02:32.297Z,23.67
2022-08-08T03:05:22.389Z,23.66
2022-08-08T03:07:57.940Z,23.56
2022-08-08T03:10:33.485Z,23.48
2022-08-08T03:13:34.042Z,23.40
2022-08-08T03:16:19.789Z,23.36
2022-08-08T03:19:21.605Z,23.33
2022-08-08T03:21:58.338Z,23.31
2022-08-08T03:24:27.212Z,23.29
2022-08-08T03:27:02.657Z,23.27
2022-08-08T03:29:51.287Z,23.30
2022-08-08T03:32:41.279Z,23.27
2022-08-08T03:35:10.432Z,23.26
2022-08-08T03:38:54.722Z,23.24
2022-08-08T03:40:29.153Z,23.21
2022-08-08T03:42:58.781Z,23.22
2022-08-08T03:46:07.358Z,23.22
2022-08-08T03:49:09.120Z,23.21
2022-08-08T03:51:19.497Z,23.30
2022-08-08T03:54:06.511Z,23.37
2022-08-08T03:56:35.783Z,23.35
2022-08-08T03:59:03.133Z,23.38
2022-08-08T04:02:15.646Z,23.40
2022-08-08T04:04:30.720Z,23.36
2022-08-08T04:07:01.187Z,23.32
2022-08-08T04:09:30.863Z,23.32
2022-08-08T04:12:16.332Z,23.34
2022-08-08T04:14:45.363Z,23.36
2022-08-08T04:17:22.568Z,23.41
2022-08-08T04:20:01.953Z,23.43
2022-08-08T04:22:30.434Z,23.43
2022-08-08T04:24:57.929Z,23.44
2022-08-08T04:28:03.382Z,23.47
2022-08-08T04:30:17.897Z,23.48
2022-08-08T04:32:48.237Z,23.49
2022-08-08T04:35:18.035Z,23.51
2022-08-08T04:37:49.156Z,23.54
2022-08-08T04:40:17.751Z,23.65
2022-08-08T04:42:56.007Z,23.70
2022-08-08T04:45:25.812Z,23.74
2022-08-08T04:47:54.145Z,23.83
2022-08-08T04:50:25.161Z,23.94
2022-08-08T04:53:01.201Z,24.00
2022-08-08T04:55:37.858Z,24.04
2022-08-08T04:58:22.418Z,24.04
2022-08-08T05:00:49.994Z,24.02
2022-08-08T05:04:09.033Z,24.02
2022-08-08T05:06:13.169Z,24.11
2022-08-08T05:08:46.370Z,24.12
2022-08-08T05:11:23.862Z,24.13
2022-08-08T05:13:57.780Z,24.12
2022-08-08T05:16:51.481Z,24.14
2022-08-08T05:20:12.593Z,24.21
2022-08-08T05:22:05.411Z,24.22
2022-08-08T05:24:34.520Z,24.28
2022-08-08T05:27:04.745Z,24.39
2022-08-08T05:29:32.055Z,24.38
2022-08-08T05:32:06.607Z,24.29
2022-08-08T05:34:36.304Z,24.27
2022-08-08T05:37:07.613Z,24.28
2022-08-08T05:39:50.113Z,24.23
2022-08-08T05:42:19.299Z,24.27
2022-08-08T05:44:49.146Z,24.31
2022-08-08T05:47:21.006Z,24.32
2022-08-08T05:49:54.241Z,24.30
2022-08-08T05:52:31.779Z,24.35
2022-08-08T05:55:05.988Z,24.38
2022-08-08T05:58:04.555Z,24.45
2022-08-08T06:00:25.374Z,24.60
2022-08-08T06:03:17.559Z,24.68
2022-08-08T06:05:56.742Z,24.74
2022-08-08T06:08:34.587Z,24.73
2022-08-08T06:11:03.225Z,24.74
2022-08-08T06:13:36.168Z,24.85
2022-08-08T06:16:14.737Z,24.90
2022-08-08T06:18:42.828Z,25.00
2022-08-08T06:21:28.099Z,25.08
2022-08-08T06:24:04.873Z,25.09
2022-08-08T06:26:45.230Z,25.07
2022-08-08T06:29:49.425Z,25.06
2022-08-08T06:32:11.446Z,25.11
2022-08-08T06:34:52.592Z,25.16
2022-08-08T06:37:27.999Z,25.20
2022-08-08T06:39:57.207Z,25.24
2022-08-08T06:42:26.269Z,25.26
2022-08-08T06:44:55.677Z,25.29
2022-08-08T06:47:22.954Z,25.36
2022-08-08T06:50:01.092Z,25.39
2022-08-08T06:52:32.057Z,25.42
2022-08-08T06:55:01.220Z,25.43
2022-08-08T06:57:29.344Z,25.49
2022-08-08T07:00:12.742Z,25.52
2022-08-08T07:02:45.273Z,25.59
2022-08-08T07:05:20.528Z,25.71
2022-08-08T07:07:55.493Z,25.86
2022-08-08T07:10:24.379Z,25.97
2022-08-08T07:12:55.785Z,26.06
2022-08-08T07:16:04.970Z,26.17
2022-08-08T07:18:42.678Z,26.18
2022-08-08T07:21:18.878Z,26.25
2022-08-08T07:24:01.818Z,26.39
2022-08-08T07:26:35.596Z,26.64
2022-08-08T07:29:05.650Z,26.90
2022-08-08T07:31:35.856Z,27.16
2022-08-08T07:34:08.836Z,27.39
2022-08-08T07:36:37.597Z,27.59
2022-08-08T07:39:18.010Z,27.49
2022-08-08T07:42:03.755Z,27.56
2022-08-08T07:44:38.185Z,27.73
2022-08-08T07:47:08.882Z,27.84
2022-08-08T07:49:40.205Z,27.92
2022-08-08T07:52:08.427Z,27.89
2022-08-08T07:54:51.490Z,27.95
2022-08-08T07:57:26.677Z,28.06
2022-08-08T08:00:05.036Z,28.25
2022-08-08T08:02:51.751Z,28.49
2022-08-08T08:05:33.561Z,28.55
2022-08-08T08:08:05.310Z,28.68
2022-08-08T08:10:35.557Z,28.83
2022-08-08T08:13:25.409Z,28.94
2022-08-08T08:16:08.843Z,29.10
2022-08-08T08:18:55.575Z,29.17
2022-08-08T08:21:43.984Z,29.26
2022-08-08T08:24:13.716Z,29.39
2022-08-08T08:26:52.530Z,29.53
2022-08-08T08:29:22.118Z,29.60
2022-08-08T08:31:53.878Z,29.68
2022-08-08T08:34:31.856Z,29.84
2022-08-08T08:37:00.245Z,29.88
2022-08-08T08:39:59.234Z,29.95
2022-08-08T08:42:29.233Z,29.96
2022-08-08T08:45:00.579Z,30.08
2022-08-08T08:47:33.729Z,30.20
2022-08-08T08:50:31.655Z,30.29
2022-08-08T08:53:04.967Z,30.27
2022-08-08T08:55:49.479Z,30.45
2022-08-08T08:58:24.201Z,30.57
2022-08-08T09:01:08.499Z,30.68
2022-08-08T09:03:46.638Z,30.75
2022-08-08T09:06:26.057Z,30.82
2022-08-08T09:08:58.586Z,30.91
2022-08-08T09:11:33.073Z,31.04
2022-08-08T09:14:01.617Z,31.22
2022-08-08T09:16:32.694Z,31.40
2022-08-08T09:19:00.281Z,31.54
2022-08-08T09:21:57.609Z,31.63
2022-08-08T09:24:17.762Z,31.76
2022-08-08T09:26:52.497Z,31.88
2022-08-08T09:29:24.563Z,32.00
2022-08-08T09:32:04.065Z,32.15
2022-08-08T09:34:35.112Z,32.31
2022-08-08T09:37:39.648Z,32.38
2022-08-08T09:40:01.327Z,32.46
2022-08-08T09:42:44.185Z,32.56
2022-08-08T09:46:00.749Z,32.75
2022-08-08T09:48:21.904Z,32.83
2022-08-08T09:50:56.129Z,32.87
2022-08-08T09:53:31.957Z,32.97
2022-08-08T09:56:21.596Z,33.08
2022-08-08T09:58:54.629Z,33.14
2022-08-08T10:02:00.270Z,33.19
2022-08-08T10:04:41.799Z,33.38
2022-08-08T10:07:07.524Z,33.50
2022-08-08T10:09:35.913Z,33.63
2022-08-08T10:12:37.712Z,33.71
2022-08-08T10:15:17.979Z,33.60
2022-08-08T10:18:06.087Z,33.68
2022-08-08T10:21:00.184Z,33.89
2022-08-08T10:23:42.090Z,34.13
2022-08-08T10:26:26.100Z,34.17
2022-08-08T10:29:05.372Z,34.26
2022-08-08T10:31:52.821Z,34.52
2022-08-08T10:34:23.230Z,34.65
2022-08-08T10:36:51.694Z,34.63
2022-08-08T10:39:23.273Z,34.67
2022-08-08T10:42:14.778Z,34.74
2022-08-08T10:44:59.408Z,34.69
2022-08-08T10:47:26.695Z,34.72
2022-08-08T10:50:07.177Z,34.56
2022-08-08T10:52:35.692Z,34.45
2022-08-08T10:55:07.153Z,34.52
2022-08-08T10:57:50.000Z,34.72
2022-08-08T11:00:25.498Z,34.66
2022-08-08T11:02:57.250Z,34.63
2022-08-08T11:05:27.526Z,34.63
2022-08-08T11:08:39.049Z,34.70
2022-08-08T11:11:32.289Z,34.43
2022-08-08T11:14:00.977Z,34.49
2022-08-08T11:16:32.927Z,34.49
2022-08-08T11:19:01.931Z,34.47
2022-08-08T11:21:34.855Z,34.42
2022-08-08T11:24:06.341Z,34.46
2022-08-08T11:26:34.758Z,34.50
2022-08-08T11:29:06.540Z,34.56
2022-08-08T11:31:43.617Z,34.73
2022-08-08T11:34:24.444Z,34.83
2022-08-08T11:36:59.737Z,34.91
2022-08-08T11:39:27.493Z,34.95
2022-08-08T11:42:09.186Z,35.02
2022-08-08T11:44:37.361Z,35.17
2022-08-08T11:47:04.621Z,35.30
2022-08-08T11:49:40.677Z,35.34
2022-08-08T11:52:18.305Z,35.24
2022-08-08T11:54:56.422Z,35.19
2022-08-08T11:57:27.684Z,35.19
2022-08-08T12:00:01.977Z,35.29
2022-08-08T12:02:33.924Z,35.39
2022-08-08T12:05:02.067Z,35.36
2022-08-08T12:07:29.462Z,35.17
2022-08-08T12:10:09.751Z,35.24
2022-08-08T12:12:42.120Z,35.28
2022-08-08T12:15:24.722Z,35.34
2022-08-08T12:17:52.014Z,35.39
2022-08-08T12:20:19.377Z,35.39
2022-08-08T12:22:48.762Z,35.35
2022-08-08T12:25:30.980Z,35.36
2022-08-08T12:28:14.350Z,35.40
2022-08-08T12:30:47.880Z,35.44
2022-08-08T12:33:24.421Z,35.49
2022-08-08T12:36:11.594Z,35.61
2022-08-08T12:38:49.037Z,35.62
2022-08-08T12:41:34.924Z,35.57
2022-08-08T12:44:08.375Z,35.56
2022-08-08T12:46:36.540Z,35.58
2022-08-08T12:49:25.047Z,35.58
2022-08-08T12:51:59.248Z,35.54
2022-08-08T12:54:35.920Z,35.50
2022-08-08T12:57:18.775Z,35.51
2022-08-08T13:00:04.171Z,35.59
2022-08-08T13:02:51.118Z,35.78
2022-08-08T13:05:26.641Z,35.89
2022-08-08T13:08:17.814Z,35.91
2022-08-08T13:10:56.155Z,35.87
2022-08-08T13:13:28.595Z,35.73
2022-08-08T13:16:25.987Z,35.70
2022-08-08T13:19:05.478Z,35.78
2022-08-08T13:21:53.833Z,35.90
2022-08-08T13:24:40.812Z,36.06
2022-08-08T13:27:13.768Z,36.10
2022-08-08T13:29:48.258Z,36.08
2022-08-08T13:32:15.591Z,36.18
2022-08-08T13:34:42.939Z,36.18
2022-08-08T13:37:10.797Z,36.20
2022-08-08T13:39:50.878Z,36.30
2022-08-08T13:42:19.029Z,36.32
2022-08-08T13:45:09.973Z,36.26
2022-08-08T13:47:40.227Z,36.27
2022-08-08T13:50:36.587Z,36.22
2022-08-08T13:53:24.497Z,36.24
2022-08-08T13:55:59.158Z,36.21
2022-08-08T13:58:31.352Z,36.33
2022-08-08T14:01:16.469Z,36.33
2022-08-08T14:03:54.483Z,36.24
2022-08-08T14:06:33.064Z,36.19
2022-08-08T14:09:24.566Z,36.18
2022-08-08T14:11:49.284Z,36.15
2022-08-08T14:14:21.187Z,36.05
2022-08-08T14:16:52.952Z,35.93
2022-08-08T14:19:57.169Z,35.97
2022-08-08T14:22:24.706Z,36.05
2022-08-08T14:24:58.898Z,35.99
2022-08-08T14:27:29.124Z,35.98
2022-08-08T14:29:58.355Z,35.92
2022-08-08T14:32:30.073Z,35.76
2022-08-08T14:35:04.562Z,35.72
2022-08-08T14:37:57.103Z,35.65
2022-08-08T14:40:26.197Z,35.54
2022-08-08T14:42:57.036Z,35.54
2022-08-08T14:45:47.059Z,35.59
2022-08-08T14:48:27.276Z,35.63
2022-08-08T14:51:06.546Z,35.71
2022-08-08T14:53:55.012Z,35.82
2022-08-08T14:56:24.885Z,35.84
2022-08-08T14:58:54.305Z,35.77
2022-08-08T15:01:37.280Z,35.73
2022-08-08T15:04:09.550Z,35.81
2022-08-08T15:06:37.618Z,35.87
2022-08-08T15:09:07.162Z,35.92
2022-08-08T15:11:42.936Z,35.97
2022-08-08T15:14:15.137Z,35.87
2022-08-08T15:16:42.799Z,35.79
2022-08-08T15:19:11.899Z,35.84
2022-08-08T15:21:42.860Z,35.82
2022-08-08T15:24:13.963Z,35.77
2022-08-08T15:26:44.038Z,35.62
2022-08-08T15:29:22.487Z,35.33
2022-08-08T15:32:03.579Z,35.08
2022-08-08T15:34:39.773Z,35.00
2022-08-08T15:37:07.650Z,34.93
2022-08-08T15:39:38.017Z,34.79
2022-08-08T15:42:10.301Z,34.72
2022-08-08T15:44:38.474Z,34.66
2022-08-08T15:47:07.357Z,34.63
2022-08-08T15:49:44.370Z,34.74
2022-08-08T15:52:15.965Z,34.97
2022-08-08T15:54:47.915Z,34.97
2022-08-08T15:57:19.790Z,35.02
2022-08-08T16:00:06.848Z,34.99
2022-08-08T16:02:36.187Z,35.10
2022-08-08T16:05:09.387Z,35.23
2022-08-08T16:07:51.864Z,35.29
2022-08-08T16:13:11.263Z,35.45
2022-08-08T16:13:31.982Z,35.61
2022-08-08T16:16:16.409Z,35.67
2022-08-08T16:18:57.380Z,35.69
2022-08-08T16:21:31.472Z,35.73
2022-08-08T16:24:03.111Z,35.86
2022-08-08T16:26:33.640Z,35.91
2022-08-08T16:29:03.409Z,36.01
2022-08-08T16:31:37.138Z,36.20
2022-08-08T16:34:04.825Z,36.20
2022-08-08T16:36:33.124Z,36.32
2022-08-08T16:39:01.676Z,36.83
2022-08-08T16:41:51.335Z,37.33
2022-08-08T16:44:28.040Z,37.40
2022-08-08T16:47:21.908Z,37.20
2022-08-08T16:50:12.691Z,37.43
2022-08-08T16:55:01.104Z,37.73
2022-08-08T16:55:55.652Z,37.84
2022-08-08T16:58:20.724Z,37.49
2022-08-08T17:00:48.658Z,36.90
2022-08-08T17:03:18.109Z,36.24
2022-08-08T17:05:53.832Z,35.63
2022-08-08T17:08:23.587Z,35.13
2022-08-08T17:10:57.905Z,34.69
2022-08-08T17:13:27.457Z,34.32
2022-08-08T17:16:15.200Z,33.95
2022-08-08T17:18:43.560Z,33.68
2022-08-08T17:21:13.749Z,33.49
2022-08-08T17:23:58.932Z,33.29
2022-08-08T17:26:29.386Z,33.07
2022-08-08T17:28:58.661Z,32.87
2022-08-08T17:31:43.587Z,32.71
2022-08-08T17:34:36.523Z,32.52
2022-08-08T17:37:03.867Z,32.34
2022-08-08T17:40:05.135Z,32.19
2022-08-08T17:42:21.196Z,32.07
2022-08-08T17:44:52.485Z,31.98
2022-08-08T17:47:27.662Z,31.86
2022-08-08T17:50:01.095Z,31.76
2022-08-08T17:52:30.921Z,31.66
2022-08-08T17:54:58.439Z,31.56
2022-08-08T17:57:26.353Z,31.47
2022-08-08T17:59:58.956Z,31.36
2022-08-08T18:02:30.077Z,31.23
2022-08-08T18:05:04.357Z,31.09
2022-08-08T18:08:15.420Z,30.95
2022-08-08T18:10:20.436Z,30.87
2022-08-08T18:12:59.113Z,30.79
2022-08-08T18:15:28.524Z,30.73
2022-08-08T18:18:09.445Z,30.67
2022-08-08T18:20:59.203Z,30.58
2022-08-08T18:23:27.076Z,30.49
2022-08-08T18:25:56.457Z,30.44
2022-08-08T18:28:28.918Z,30.40
2022-08-08T18:31:02.942Z,30.35
2022-08-08T18:34:12.379Z,30.27
2022-08-08T18:36:23.364Z,30.19
2022-08-08T18:38:52.564Z,30.07
2022-08-08T18:41:19.949Z,29.98
2022-08-08T18:44:07.203Z,29.91
2022-08-08T18:46:55.555Z,29.88
2022-08-08T18:49:32.397Z,29.80
2022-08-08T18:52:18.317Z,29.80
2022-08-08T18:55:01.039Z,29.75
2022-08-08T18:57:42.064Z,29.72
2022-08-08T19:00:16.659Z,29.67
2022-08-08T19:02:55.428Z,29.59
2022-08-08T19:05:32.104Z,29.49
2022-08-08T19:08:25.367Z,29.35
2022-08-08T19:10:57.753Z,29.24
2022-08-08T19:13:52.948Z,29.18
2022-08-08T19:16:15.042Z,29.06
2022-08-08T19:18:53.181Z,28.96
2022-08-08T19:21:30.917Z,28.84
2022-08-08T19:24:05.423Z,28.78
2022-08-08T19:26:34.219Z,28.75
2022-08-08T19:29:01.856Z,28.71
2022-08-08T19:31:31.735Z,28.64
2022-08-08T19:34:35.676Z,28.61
2022-08-08T19:36:52.791Z,28.59
2022-08-08T19:39:22.959Z,28.57
2022-08-08T19:41:51.767Z,28.54
2022-08-08T19:44:34.727Z,28.50
2022-08-08T19:47:06.746Z,28.46
2022-08-08T19:49:37.766Z,28.44
2022-08-08T19:52:06.523Z,28.36
2022-08-08T19:54:34.272Z,28.30
2022-08-08T19:57:04.199Z,28.35
2022-08-08T19:59:35.353Z,28.30
2022-08-08T20:02:04.280Z,28.25
2022-08-08T20:04:35.585Z,28.25
2022-08-08T20:08:27.063Z,28.23
2022-08-08T20:09:55.630Z,28.19
2022-08-08T20:12:34.497Z,28.15
2022-08-08T20:15:14.530Z,28.10
2022-08-08T20:17:45.366Z,28.07
2022-08-08T20:20:16.081Z,28.06
2022-08-08T20:22:54.162Z,28.05
2022-08-08T20:25:26.541Z,27.98
2022-08-08T20:27:57.614Z,27.96
2022-08-08T20:30:38.973Z,27.94
2022-08-08T20:35:58.629Z,27.88
2022-08-08T20:38:33.482Z,27.87
2022-08-08T20:41:05.930Z,27.78
2022-08-08T20:43:48.317Z,27.80
2022-08-08T20:46:20.578Z,27.76
2022-08-08T20:48:51.132Z,27.73
2022-08-08T20:51:20.737Z,27.65
2022-08-08T20:54:00.109Z,27.62
2022-08-08T20:56:35.015Z,27.55
2022-08-08T20:59:08.715Z,27.57
2022-08-08T21:02:06.433Z,27.57
2022-08-08T21:04:27.407Z,27.57
2022-08-08T21:06:55.615Z,27.51
2022-08-08T21:09:23.570Z,27.48
2022-08-08T21:12:03.206Z,27.47
2022-08-08T21:14:34.454Z,27.46
2022-08-08T21:17:05.848Z,27.42
2022-08-08T21:19:45.501Z,27.39
2022-08-08T21:22:14.076Z,27.35
2022-08-08T21:24:52.179Z,27.30
2022-08-08T21:28:06.055Z,27.30
2022-08-08T21:30:17.994Z,27.24
2022-08-08T21:32:51.821Z,27.29
2022-08-08T21:36:16.576Z,27.28
2022-08-08T21:38:16.363Z,27.27
2022-08-08T21:40:55.093Z,27.27
2022-08-08T21:43:30.990Z,27.22
2022-08-08T21:48:01.686Z,27.19
2022-08-08T21:48:53.920Z,27.14
2022-08-08T21:52:09.738Z,27.10
2022-08-08T21:54:34.460Z,27.08
2022-08-08T21:56:59.275Z,27.03
2022-08-08T21:59:43.737Z,27.04
2022-08-08T22:02:16.018Z,27.01
2022-08-08T22:04:46.593Z,27.00
2022-08-08T22:07:13.890Z,26.98
2022-08-08T22:09:44.328Z,26.99
2022-08-08T22:12:17.069Z,26.96
2022-08-08T22:14:47.218Z,26.94
2022-08-08T22:17:19.147Z,26.87
2022-08-08T22:20:11.407Z,26.84
2022-08-08T22:22:38.066Z,26.79
2022-08-08T22:25:12.475Z,26.73
2022-08-08T22:28:02.725Z,26.68
2022-08-08T22:30:40.882Z,26.65
2022-08-08T22:33:22.252Z,26.63
2022-08-08T22:36:05.638Z,26.60
2022-08-08T22:38:48.088Z,26.57
2022-08-08T22:41:21.551Z,26.54
2022-08-08T22:44:02.493Z,26.52
2022-08-08T22:46:32.977Z,26.51
2022-08-08T22:49:00.558Z,26.48
2022-08-08T22:51:29.040Z,26.45
2022-08-08T22:54:33.968Z,26.37
2022-08-08T22:56:47.494Z,26.26
2022-08-08T22:59:18.582Z,26.16
2022-08-08T23:02:01.708Z,26.09
2022-08-08T23:04:32.352Z,26.01
2022-08-08T23:07:02.680Z,25.93
2022-08-08T23:09:31.245Z,25.89
2022-08-08T23:12:27.743Z,25.86
2022-08-08T23:14:59.804Z,25.74
2022-08-08T23:17:53.807Z,25.65
2022-08-08T23:20:21.604Z,25.57
2022-08-08T23:22:55.258Z,25.52
2022-08-08T23:25:23.520Z,25.44
2022-08-08T23:27:54.222Z,25.36
2022-08-08T23:30:22.801Z,25.31
2022-08-08T23:32:51.783Z,25.27
2022-08-08T23:35:19.133Z,25.23
2022-08-08T23:38:02.964Z,25.18
2022-08-08T23:40:31.596Z,25.13
2022-08-08T23:43:02.823Z,25.06
2022-08-08T23:49:02.237Z,25.02
2022-08-08T23:49:04.614Z,24.99
2022-08-08T23:51:12.716Z,24.93
2022-08-08T23:54:04.878Z,24.88
2022-08-08T23:56:34.253Z,24.87
2022-08-08T23:59:02.311Z,24.83
